Pagina principale
METAR-TAF:

METAR-TAF

Aeroporti :

Dobbiaco, Italia

latitudine: 46-44N, longitudine: 012-13E, altezza: 1222 m

Osservazione

Il bollettino è stato emesso 1 ora e 13 minuti fa, alle 10:55 UTC
Vento calmo
Temperature 2°C
Umidità 93%
Pressione 1012 hPa
Visibilità 10 km o più
Nubi sparse ad un'altezza di 2000 ft

METAR: LIVD 191055Z 00000KT 9999 SCT020 02/01 Q1012 RMK SCT VIS MIN 9999

Ora: 13:08 (12:08 UTC)


TAF: mancante

Osservazioni e previsioni meteorologiche di più di 4000 aeroporti (messaggi METAR e TAF).

Le stazioni disponibili sono rappresentate dai dischi gialli e rossi sulla carta.

Puntare il mouse per vedere il nome della stazione.

Clicca sopra per visualizzare le osservazioni e previsioni meteorologiche.

Per cambiare la mappa : fare clic sui pulsanti verdi con una croce nera per ingrandire, il pulsante verde con un trattino per diminuire, o sulla freccia verde per le mappe adiacenti.


METAR-TAF: